createdAt,value
2022-10-17T00:00:26.886Z,15.86
2022-10-17T00:03:18.921Z,15.81
2022-10-17T00:05:49.199Z,15.81
2022-10-17T00:08:19.316Z,15.81
2022-10-17T00:11:05.727Z,15.81
2022-10-17T00:13:35.229Z,15.80
2022-10-17T00:16:06.021Z,15.80
2022-10-17T00:18:35.277Z,15.80
2022-10-17T00:21:06.606Z,15.80
2022-10-17T00:23:35.659Z,15.78
2022-10-17T00:26:06.395Z,15.78
2022-10-17T00:28:35.403Z,15.78
2022-10-17T00:31:10.172Z,15.79
2022-10-17T00:33:39.644Z,15.79
2022-10-17T00:36:15.963Z,15.80
2022-10-17T00:38:48.307Z,15.79
2022-10-17T00:41:23.142Z,15.76
2022-10-17T00:44:18.626Z,15.73
2022-10-17T00:46:47.478Z,15.66
2022-10-17T00:49:16.301Z,15.60
2022-10-17T00:51:54.232Z,15.52
2022-10-17T00:54:30.487Z,15.41
2022-10-17T00:57:00.551Z,15.32
2022-10-17T00:59:37.080Z,15.25
2022-10-17T01:02:13.673Z,15.19
2022-10-17T01:04:50.976Z,15.12
2022-10-17T01:07:20.115Z,15.07
2022-10-17T01:09:52.729Z,14.98
2022-10-17T01:12:57.739Z,14.97
2022-10-17T01:15:45.172Z,14.92
2022-10-17T01:18:35.998Z,14.86
2022-10-17T01:21:10.501Z,14.86
2022-10-17T01:24:07.555Z,14.91
2022-10-17T01:27:05.924Z,14.89
2022-10-17T01:29:54.071Z,14.86
2022-10-17T01:32:46.978Z,14.83
2022-10-17T01:35:56.111Z,14.77
2022-10-17T01:38:48.880Z,14.69
2022-10-17T01:41:32.362Z,14.64
2022-10-17T01:44:35.543Z,14.60
2022-10-17T01:47:17.500Z,14.56
2022-10-17T01:50:01.076Z,14.53
2022-10-17T01:52:56.080Z,14.53
2022-10-17T01:55:35.199Z,14.50
2022-10-17T01:58:12.729Z,14.48
2022-10-17T02:00:45.471Z,14.44
2022-10-17T02:03:23.497Z,14.40
2022-10-17T02:05:52.754Z,14.36
2022-10-17T02:08:40.453Z,14.35
2022-10-17T02:11:21.793Z,14.32
2022-10-17T02:14:33.244Z,14.32
2022-10-17T02:17:44.997Z,14.30
2022-10-17T02:20:53.461Z,14.27
2022-10-17T02:24:03.943Z,14.21
2022-10-17T02:26:52.710Z,14.18
2022-10-17T02:29:35.053Z,14.18
2022-10-17T02:35:01.779Z,14.05
2022-10-17T02:37:35.045Z,13.95
2022-10-17T02:40:08.975Z,13.90
2022-10-17T02:42:46.488Z,13.87
2022-10-17T02:45:28.025Z,13.83
2022-10-17T02:48:09.717Z,13.84
2022-10-17T02:51:19.462Z,13.87
2022-10-17T02:54:06.275Z,13.86
2022-10-17T02:56:43.963Z,13.86
2022-10-17T02:59:16.210Z,13.85
2022-10-17T03:01:45.485Z,13.84
2022-10-17T03:04:27.371Z,13.83
2022-10-17T03:06:57.648Z,13.81
2022-10-17T03:09:29.123Z,13.71
2022-10-17T03:11:59.366Z,13.68
2022-10-17T03:14:37.971Z,13.63
2022-10-17T03:17:07.212Z,13.53
2022-10-17T03:19:38.396Z,13.45
2022-10-17T03:22:11.861Z,13.39
2022-10-17T03:24:45.569Z,13.33
2022-10-17T03:27:17.165Z,13.28
2022-10-17T03:29:53.352Z,13.24
2022-10-17T03:32:31.379Z,13.19
2022-10-17T03:35:56.820Z,13.12
2022-10-17T03:38:37.029Z,13.07
2022-10-17T03:41:07.576Z,13.04
2022-10-17T03:43:40.182Z,13.01
2022-10-17T03:46:12.913Z,12.97
2022-10-17T03:48:54.051Z,12.94
2022-10-17T03:51:28.673Z,12.91
2022-10-17T03:54:10.716Z,12.89
2022-10-17T03:56:47.058Z,12.91
2022-10-17T03:59:29.551Z,12.92
2022-10-17T04:02:14.208Z,12.94
2022-10-17T04:04:46.882Z,12.91
2022-10-17T04:10:14.106Z,12.79
2022-10-17T04:13:00.867Z,12.74
2022-10-17T04:16:18.439Z,12.73
2022-10-17T04:19:04.026Z,12.73
2022-10-17T04:21:42.826Z,12.78
2022-10-17T04:24:44.923Z,12.82
2022-10-17T04:27:55.180Z,12.91
2022-10-17T04:30:54.096Z,12.95
2022-10-17T04:33:57.172Z,12.99
2022-10-17T04:36:47.158Z,13.04
2022-10-17T04:39:32.730Z,13.05
2022-10-17T04:42:29.588Z,13.06
2022-10-17T04:45:06.421Z,13.06
2022-10-17T04:47:41.247Z,13.05
2022-10-17T04:50:12.494Z,13.03
2022-10-17T04:52:47.903Z,12.94
2022-10-17T04:55:25.957Z,12.84
2022-10-17T04:58:06.875Z,12.78
2022-10-17T05:00:47.581Z,12.70
2022-10-17T05:03:42.938Z,12.68
2022-10-17T05:06:25.338Z,12.68
2022-10-17T05:09:54.588Z,12.64
2022-10-17T05:15:33.852Z,12.57
2022-10-17T05:18:19.654Z,12.55
2022-10-17T05:24:09.730Z,12.48
2022-10-17T05:26:46.025Z,12.48
2022-10-17T05:29:20.510Z,12.49
2022-10-17T05:35:07.061Z,12.47
2022-10-17T05:37:44.245Z,12.44
2022-10-17T05:40:52.970Z,12.44
2022-10-17T05:43:40.931Z,12.42
2022-10-17T05:46:35.202Z,12.42
2022-10-17T05:49:44.954Z,12.41
2022-10-17T05:53:11.385Z,12.39
2022-10-17T05:56:14.857Z,12.37
2022-10-17T05:59:04.478Z,12.38
2022-10-17T06:02:17.659Z,12.39
2022-10-17T06:05:15.583Z,12.41
2022-10-17T06:07:58.282Z,12.44
2022-10-17T06:11:09.132Z,12.49
2022-10-17T06:14:03.937Z,12.54
2022-10-17T06:16:44.663Z,12.63
2022-10-17T06:19:28.020Z,12.71
2022-10-17T06:22:16.847Z,12.78
2022-10-17T06:25:03.239Z,12.89
2022-10-17T06:33:26.619Z,13.15
2022-10-17T06:34:39.589Z,13.30
2022-10-17T06:37:39.863Z,13.41
2022-10-17T06:40:24.025Z,13.50
2022-10-17T06:43:25.588Z,13.63
2022-10-17T06:46:59.686Z,13.75
2022-10-17T06:49:34.574Z,13.90
2022-10-17T06:52:32.943Z,14.02
2022-10-17T06:58:11.583Z,14.14
2022-10-17T07:01:00.858Z,14.25
2022-10-17T07:02:45.197Z,14.37
2022-10-17T07:05:35.835Z,14.49
2022-10-17T07:08:14.909Z,14.63
2022-10-17T07:11:05.335Z,14.78
2022-10-17T07:17:16.307Z,15.22
2022-10-17T07:19:48.825Z,15.46
2022-10-17T07:22:46.279Z,15.67
2022-10-17T07:26:10.741Z,15.93
2022-10-17T07:29:00.399Z,16.24
2022-10-17T07:31:53.524Z,16.59
2022-10-17T07:34:33.009Z,16.96
2022-10-17T07:37:22.994Z,17.33
2022-10-17T07:40:11.183Z,17.68
2022-10-17T07:43:23.370Z,18.01
2022-10-17T07:46:08.629Z,18.31
2022-10-17T07:48:58.885Z,18.58
2022-10-17T07:51:36.519Z,18.81
2022-10-17T07:54:08.311Z,19.09
2022-10-17T07:56:37.603Z,19.39
2022-10-17T07:59:09.311Z,19.55
2022-10-17T08:01:40.046Z,19.58
2022-10-17T08:04:23.496Z,19.55
2022-10-17T08:07:11.300Z,19.51
2022-10-17T08:09:54.741Z,19.51
2022-10-17T08:12:25.343Z,19.60
2022-10-17T08:15:05.068Z,19.69
2022-10-17T08:17:41.824Z,19.74
2022-10-17T08:20:19.997Z,19.71
2022-10-17T08:23:09.267Z,19.73
2022-10-17T08:25:43.229Z,19.78
2022-10-17T08:28:23.283Z,19.78
2022-10-17T08:31:09.779Z,19.70
2022-10-17T08:33:45.118Z,19.72
2022-10-17T08:36:31.477Z,19.83
2022-10-17T08:39:03.767Z,19.81
2022-10-17T08:41:40.234Z,19.88
2022-10-17T08:44:39.563Z,19.95
2022-10-17T08:47:33.066Z,19.91
2022-10-17T08:50:38.348Z,19.87
2022-10-17T08:53:19.469Z,19.86
2022-10-17T08:55:52.450Z,19.88
2022-10-17T08:58:38.645Z,19.92
2022-10-17T09:01:44.134Z,19.92
2022-10-17T09:04:40.062Z,19.93
2022-10-17T09:08:02.632Z,19.93
2022-10-17T09:11:30.579Z,19.93
2022-10-17T09:15:03.270Z,20.00
2022-10-17T09:18:14.294Z,20.11
2022-10-17T09:21:13.462Z,20.15
2022-10-17T09:23:59.530Z,20.21
2022-10-17T09:26:40.545Z,20.32
2022-10-17T09:29:24.646Z,20.38
2022-10-17T09:32:04.775Z,20.38
2022-10-17T09:34:33.690Z,20.48
2022-10-17T09:37:03.144Z,20.59
2022-10-17T09:39:33.204Z,20.73
2022-10-17T09:42:03.271Z,20.83
2022-10-17T09:45:12.919Z,20.92
2022-10-17T09:50:27.835Z,21.12
2022-10-17T09:53:02.326Z,21.31
2022-10-17T09:55:49.694Z,21.46
2022-10-17T09:58:20.652Z,21.62
2022-10-17T10:00:53.834Z,21.82
2022-10-17T10:03:29.867Z,22.02
2022-10-17T10:06:05.257Z,22.24
2022-10-17T10:08:58.929Z,22.35
2022-10-17T10:12:20.862Z,22.35
2022-10-17T10:14:55.531Z,22.40
2022-10-17T10:17:35.849Z,22.52
2022-10-17T10:20:30.172Z,22.68
2022-10-17T10:23:17.881Z,22.93
2022-10-17T10:26:02.945Z,23.07
2022-10-17T10:28:36.879Z,23.15
2022-10-17T10:31:09.602Z,23.24
2022-10-17T10:33:46.983Z,23.31
2022-10-17T10:36:21.984Z,23.42
2022-10-17T10:39:01.234Z,23.52
2022-10-17T10:41:48.384Z,23.53
2022-10-17T10:44:26.181Z,23.59
2022-10-17T10:47:33.109Z,23.62
2022-10-17T10:50:24.867Z,23.62
2022-10-17T10:53:26.888Z,23.64
2022-10-17T10:56:31.797Z,23.64
2022-10-17T10:59:14.547Z,23.60
2022-10-17T11:02:03.836Z,23.55
2022-10-17T11:04:52.762Z,23.48
2022-10-17T11:07:53.047Z,23.40
2022-10-17T11:10:55.424Z,23.28
2022-10-17T11:13:31.796Z,23.14
2022-10-17T11:16:23.538Z,23.06
2022-10-17T11:19:23.934Z,22.99
2022-10-17T11:22:26.658Z,22.94
2022-10-17T11:25:24.911Z,22.88
2022-10-17T11:27:54.442Z,22.86
2022-10-17T11:30:27.665Z,22.84
2022-10-17T11:33:01.257Z,22.82
2022-10-17T11:35:39.216Z,22.83
2022-10-17T11:38:45.972Z,22.84
2022-10-17T11:41:26.892Z,22.83
2022-10-17T11:44:32.663Z,22.85
2022-10-17T11:47:43.204Z,22.85
2022-10-17T11:54:09.360Z,22.78
2022-10-17T11:56:54.289Z,22.75
2022-10-17T12:00:10.027Z,22.74
2022-10-17T12:03:05.154Z,22.70
2022-10-17T12:05:56.389Z,22.70
2022-10-17T12:08:39.584Z,22.71
2022-10-17T12:11:46.911Z,22.73
2022-10-17T12:14:37.472Z,22.72
2022-10-17T12:17:40.599Z,22.72
2022-10-17T12:20:21.850Z,22.73
2022-10-17T12:22:52.179Z,22.78
2022-10-17T12:25:31.539Z,22.83
2022-10-17T12:28:22.871Z,22.85
2022-10-17T12:30:57.398Z,22.86
2022-10-17T12:33:48.447Z,22.87
2022-10-17T12:36:19.660Z,22.85
2022-10-17T12:39:01.760Z,22.87
2022-10-17T12:41:40.264Z,22.86
2022-10-17T12:44:16.655Z,22.83
2022-10-17T12:47:04.199Z,22.81
2022-10-17T12:49:48.811Z,22.80
2022-10-17T12:52:31.721Z,22.78
2022-10-17T12:55:18.309Z,22.77
2022-10-17T12:57:58.767Z,22.72
2022-10-17T13:00:59.536Z,22.69
2022-10-17T13:03:44.501Z,22.65
2022-10-17T13:06:34.545Z,22.63
2022-10-17T13:09:35.537Z,22.61
2022-10-17T13:12:12.660Z,22.60
2022-10-17T13:14:46.735Z,22.61
2022-10-17T13:17:30.904Z,22.63
2022-10-17T13:20:01.928Z,22.64
2022-10-17T13:22:33.466Z,22.63
2022-10-17T13:25:21.977Z,22.61
2022-10-17T13:28:02.992Z,22.59
2022-10-17T13:30:36.277Z,22.59
2022-10-17T13:33:30.528Z,22.58
2022-10-17T13:36:05.282Z,22.55
2022-10-17T13:38:40.293Z,22.55
2022-10-17T13:41:34.936Z,22.54
2022-10-17T13:44:15.238Z,22.52
2022-10-17T13:46:45.290Z,22.51
2022-10-17T13:49:43.315Z,22.50
2022-10-17T13:52:23.591Z,22.48
2022-10-17T13:54:54.562Z,22.52
2022-10-17T13:57:31.158Z,22.55
2022-10-17T14:00:19.902Z,22.57
2022-10-17T14:02:49.233Z,22.57
2022-10-17T14:05:23.384Z,22.57
2022-10-17T14:08:12.447Z,22.58
2022-10-17T14:10:44.760Z,22.56
2022-10-17T14:13:22.027Z,22.53
2022-10-17T14:15:53.020Z,22.50
2022-10-17T14:18:34.880Z,22.50
2022-10-17T14:24:14.152Z,22.43
2022-10-17T14:26:52.518Z,22.40
2022-10-17T14:29:35.148Z,22.36
2022-10-17T14:32:13.906Z,22.34
2022-10-17T14:34:43.096Z,22.30
2022-10-17T14:37:43.925Z,22.26
2022-10-17T14:40:35.416Z,22.21
2022-10-17T14:43:06.257Z,22.15
2022-10-17T14:45:39.382Z,22.06
2022-10-17T14:48:17.875Z,22.05
2022-10-17T14:51:06.868Z,22.04
2022-10-17T14:53:36.981Z,22.01
2022-10-17T14:56:26.876Z,22.00
2022-10-17T14:58:56.123Z,21.97
2022-10-17T15:01:25.351Z,21.95
2022-10-17T15:03:54.640Z,21.92
2022-10-17T15:06:30.619Z,21.88
2022-10-17T15:09:00.385Z,21.85
2022-10-17T15:11:29.628Z,21.83
2022-10-17T15:13:58.863Z,21.81
2022-10-17T15:16:33.293Z,21.78
2022-10-17T15:19:02.548Z,21.75
2022-10-17T15:21:40.570Z,21.71
2022-10-17T15:24:12.457Z,21.64
2022-10-17T15:26:43.921Z,21.60
2022-10-17T15:29:16.525Z,21.58
2022-10-17T15:31:45.732Z,21.55
2022-10-17T15:34:15.087Z,21.52
2022-10-17T15:36:51.957Z,21.47
2022-10-17T15:39:21.203Z,21.39
2022-10-17T15:41:50.460Z,21.33
2022-10-17T15:44:20.872Z,21.27
2022-10-17T15:46:50.222Z,21.20
2022-10-17T15:49:20.289Z,21.12
2022-10-17T15:51:55.454Z,21.03
2022-10-17T15:54:26.544Z,20.95
2022-10-17T15:57:04.441Z,20.78
2022-10-17T15:59:39.208Z,20.70
2022-10-17T16:02:27.299Z,20.55
2022-10-17T16:05:00.081Z,20.51
2022-10-17T16:07:38.021Z,20.50
2022-10-17T16:10:10.540Z,20.49
2022-10-17T16:12:43.314Z,20.48
2022-10-17T16:15:36.880Z,20.46
2022-10-17T16:18:17.213Z,20.39
2022-10-17T16:20:58.159Z,20.33
2022-10-17T16:23:27.947Z,20.27
2022-10-17T16:25:59.461Z,20.23
2022-10-17T16:28:31.040Z,20.16
2022-10-17T16:31:01.938Z,20.07
2022-10-17T16:33:34.684Z,20.01
2022-10-17T16:36:07.947Z,19.92
2022-10-17T16:38:40.944Z,19.88
2022-10-17T16:41:34.281Z,19.79
2022-10-17T16:44:19.794Z,19.67
2022-10-17T16:46:52.057Z,19.56
2022-10-17T16:49:21.452Z,19.45
2022-10-17T16:51:50.617Z,19.37
2022-10-17T16:54:22.537Z,19.27
2022-10-17T16:56:51.699Z,19.23
2022-10-17T16:59:21.101Z,19.18
2022-10-17T17:01:59.248Z,19.11
2022-10-17T17:04:31.349Z,19.06
2022-10-17T17:07:05.690Z,19.00
2022-10-17T17:09:40.243Z,18.95
2022-10-17T17:12:34.611Z,18.91
2022-10-17T17:15:08.222Z,18.86
2022-10-17T17:17:50.613Z,18.81
2022-10-17T17:20:31.142Z,18.76
2022-10-17T17:23:04.862Z,18.74
2022-10-17T17:25:45.522Z,18.71
2022-10-17T17:28:19.426Z,18.68
2022-10-17T17:31:02.122Z,18.64
2022-10-17T17:33:46.255Z,18.61
2022-10-17T17:36:22.127Z,18.61
2022-10-17T17:39:17.238Z,18.59
2022-10-17T17:45:39.086Z,18.56
2022-10-17T17:48:22.623Z,18.56
2022-10-17T17:51:09.142Z,18.57
2022-10-17T17:53:52.078Z,18.57
2022-10-17T17:56:33.274Z,18.56
2022-10-17T17:59:03.286Z,18.54
2022-10-17T18:01:41.459Z,18.52
2022-10-17T18:04:26.616Z,18.48
2022-10-17T18:07:00.596Z,18.47
2022-10-17T18:09:32.389Z,18.46
2022-10-17T18:12:01.693Z,18.46
2022-10-17T18:14:30.985Z,18.46
2022-10-17T18:17:14.926Z,18.45
2022-10-17T18:19:49.700Z,18.42
2022-10-17T18:22:21.468Z,18.41
2022-10-17T18:24:59.306Z,18.39
2022-10-17T18:27:51.759Z,18.34
2022-10-17T18:31:10.761Z,18.23
2022-10-17T18:34:08.810Z,18.18
2022-10-17T18:36:46.943Z,18.15
2022-10-17T18:39:41.502Z,18.12
2022-10-17T18:42:30.584Z,18.12
2022-10-17T18:45:11.728Z,18.12
2022-10-17T18:47:55.886Z,18.08
2022-10-17T18:50:33.363Z,18.05
2022-10-17T18:53:06.677Z,18.00
2022-10-17T18:55:41.736Z,17.98
2022-10-17T18:58:14.020Z,17.94
2022-10-17T19:01:08.092Z,17.94
2022-10-17T19:03:46.015Z,17.90
2022-10-17T19:06:39.539Z,17.87
2022-10-17T19:09:18.797Z,17.81
2022-10-17T19:12:05.099Z,17.70
2022-10-17T19:15:01.240Z,17.66
2022-10-17T19:17:49.077Z,17.61
2022-10-17T19:20:32.209Z,17.56
2022-10-17T19:23:07.805Z,17.55
2022-10-17T19:25:39.923Z,17.56
2022-10-17T19:28:12.690Z,17.57
2022-10-17T19:30:45.954Z,17.60
2022-10-17T19:33:18.964Z,17.61
2022-10-17T19:35:59.811Z,17.61
2022-10-17T19:38:32.999Z,17.55
2022-10-17T19:41:08.384Z,17.51
2022-10-17T19:43:53.116Z,17.46
2022-10-17T19:46:35.277Z,17.42
2022-10-17T19:49:26.995Z,17.37
2022-10-17T19:52:02.130Z,17.33
2022-10-17T19:54:46.297Z,17.32
2022-10-17T19:57:18.188Z,17.30
2022-10-17T20:00:43.999Z,17.29
2022-10-17T20:02:51.897Z,17.23
2022-10-17T20:06:19.144Z,17.19
2022-10-17T20:08:58.313Z,17.10
2022-10-17T20:11:33.354Z,17.08
2022-10-17T20:14:08.152Z,17.07
2022-10-17T20:21:24.023Z,16.96
2022-10-17T20:24:01.015Z,16.88
2022-10-17T20:27:27.643Z,16.84
2022-10-17T20:30:31.098Z,16.78
2022-10-17T20:33:08.374Z,16.78
2022-10-17T20:38:21.713Z,16.75
2022-10-17T20:41:34.041Z,16.67
2022-10-17T20:44:16.984Z,16.56
2022-10-17T20:47:04.500Z,16.49
2022-10-17T20:49:46.078Z,16.46
2022-10-17T20:52:46.598Z,16.43
2022-10-17T20:55:35.478Z,16.41
2022-10-17T20:58:26.966Z,16.38
2022-10-17T21:01:15.580Z,16.30
2022-10-17T21:03:50.170Z,16.26
2022-10-17T21:06:34.621Z,16.24
2022-10-17T21:09:15.310Z,16.20
2022-10-17T21:14:51.744Z,16.13
2022-10-17T21:17:42.894Z,16.11
2022-10-17T21:20:31.914Z,16.13
2022-10-17T21:23:02.529Z,16.11
2022-10-17T21:25:56.878Z,16.11
2022-10-17T21:28:31.547Z,16.12
2022-10-17T21:31:15.089Z,16.10
2022-10-17T21:33:58.360Z,16.06
2022-10-17T21:36:36.423Z,16.06
2022-10-17T21:39:30.176Z,16.05
2022-10-17T21:42:25.977Z,16.01
2022-10-17T21:45:15.852Z,16.00
2022-10-17T21:48:18.901Z,16.00
2022-10-17T21:51:11.985Z,16.01
2022-10-17T21:54:14.680Z,16.02
2022-10-17T21:57:01.436Z,16.01
2022-10-17T21:59:49.175Z,15.98
2022-10-17T22:03:06.983Z,15.95
2022-10-17T22:05:58.251Z,15.93
2022-10-17T22:09:08.132Z,15.88
2022-10-17T22:11:45.426Z,15.83
2022-10-17T22:14:25.016Z,15.78
2022-10-17T22:17:10.433Z,15.74
2022-10-17T22:19:48.835Z,15.71
2022-10-17T22:22:34.175Z,15.65
2022-10-17T22:25:37.929Z,15.58
2022-10-17T22:28:19.001Z,15.56
2022-10-17T22:31:31.720Z,15.50
2022-10-17T22:34:18.522Z,15.46
2022-10-17T22:36:58.665Z,15.35
2022-10-17T22:40:10.384Z,15.33
2022-10-17T22:42:44.269Z,15.32
2022-10-17T22:46:01.556Z,15.27
2022-10-17T22:48:46.407Z,15.22
2022-10-17T22:54:11.698Z,15.10
2022-10-17T22:57:12.336Z,15.05
2022-10-17T22:59:43.299Z,14.98
2022-10-17T23:02:33.576Z,14.95
2022-10-17T23:05:16.850Z,14.90
2022-10-17T23:08:15.441Z,14.85
2022-10-17T23:11:41.645Z,14.81
2022-10-17T23:14:03.339Z,14.79
2022-10-17T23:16:36.892Z,14.79
2022-10-17T23:19:35.574Z,14.73
2022-10-17T23:25:43.639Z,14.62
2022-10-17T23:28:26.416Z,14.58
2022-10-17T23:31:01.891Z,14.56
2022-10-17T23:33:51.511Z,14.52
2022-10-17T23:37:07.348Z,14.46
2022-10-17T23:40:17.410Z,14.38
2022-10-17T23:43:26.666Z,14.34
2022-10-17T23:45:59.395Z,14.36
2022-10-17T23:51:57.075Z,14.30
2022-10-17T23:54:56.118Z,14.27
2022-10-17T23:58:27.523Z,14.26
